Time;durP1;ratioP1;P1;durP2;ratioP2;P2;SDS_P1;SDS_P2;PMS_P1;PMS_P2;Temp;Humidity;BMP_temperature;BMP_pressure;BME280_temperature;BME280_humidity;BME280_pressure;Samples;Min_cycle;Max_cycle;Signal;HPM_P1;HPM_P2
2022/10/18 00:00:24;;;;;;;;;;;23.00;99.90;;;;;;4208332;28;20337;-66
2022/10/18 00:02:28;;;;;;;;;;;23.10;99.90;;;;;;4183747;28;19936;-66
2022/10/18 00:04:35;;;;;;;;;;;23.10;99.90;;;;;;4194898;28;19925;-66
2022/10/18 00:06:42;;;;;;;;;;;23.00;99.90;;;;;;4194144;28;20374;-66
2022/10/18 00:08:48;;;;;;;;;;;23.00;99.90;;;;;;4192962;28;19950;-67
2022/10/18 00:10:52;;;;;;;;;;;23.00;99.90;;;;;;4194006;28;19971;-67
2022/10/18 00:12:58;;;;;;;;;;;23.10;99.90;;;;;;4204375;28;19931;-66
2022/10/18 00:15:03;;;;;;;;;;;23.20;99.90;;;;;;4190724;28;19978;-66
2022/10/18 00:17:07;;;;;;;;;;;23.10;99.90;;;;;;3305921;28;10001013;-67
2022/10/18 00:19:11;;;;;;;;;;;23.10;99.90;;;;;;3313022;28;10000979;-67
2022/10/18 00:21:17;;;;;;;;;;;23.10;99.90;;;;;;4193404;28;21509;-67
2022/10/18 00:23:21;;;;;;;;;;;23.10;99.90;;;;;;4193855;28;19950;-67
2022/10/18 00:25:26;;;;;;;;;;;23.20;99.90;;;;;;4191887;28;19932;-67
2022/10/18 00:27:30;;;;;;;;;;;23.30;99.90;;;;;;4191162;28;19994;-68
2022/10/18 00:29:35;;;;;;;;;;;23.20;99.90;;;;;;4191518;28;19996;-68
2022/10/18 00:31:39;;;;;;;;;;;23.10;99.90;;;;;;4204617;28;19924;-67
2022/10/18 00:33:56;;;;;;;;;;;23.10;99.90;;;;;;4189693;28;19925;-67
2022/10/18 00:36:01;;;;;;;;;;;23.20;99.90;;;;;;4194160;28;19929;-67
2022/10/18 00:38:09;;;;;;;;;;;23.20;99.90;;;;;;4190469;28;19935;-67
2022/10/18 00:40:18;;;;;;;;;;;23.30;99.90;;;;;;4191576;28;19969;-68
2022/10/18 00:42:22;;;;;;;;;;;23.30;99.90;;;;;;4179214;28;20065;-67
2022/10/18 00:44:26;;;;;;;;;;;23.40;99.90;;;;;;4187823;28;19982;-67
2022/10/18 00:46:34;;;;;;;;;;;23.40;99.90;;;;;;4193685;28;20011;-67
2022/10/18 00:48:38;;;;;;;;;;;23.50;99.90;;;;;;4208580;28;20299;-67
2022/10/18 00:50:43;;;;;;;;;;;23.50;99.90;;;;;;4190214;28;19933;-67
2022/10/18 00:52:57;;;;;;;;;;;23.60;99.90;;;;;;4191557;28;20500;-66
2022/10/18 00:55:01;;;;;;;;;;;23.60;99.90;;;;;;4180597;28;20024;-67
2022/10/18 00:57:06;;;;;;;;;;;23.70;99.90;;;;;;4193802;28;19924;-67
2022/10/18 00:59:13;;;;;;;;;;;23.70;99.90;;;;;;4208834;28;19982;-67
2022/10/18 01:01:19;;;;;;;;;;;23.80;99.90;;;;;;4190166;28;19962;-67
2022/10/18 01:03:30;;;;;;;;;;;23.80;99.90;;;;;;4190951;28;19928;-67
2022/10/18 01:05:40;;;;;;;;;;;23.90;99.90;;;;;;4208898;28;19932;-67
2022/10/18 01:08:06;;;;;;;;;;;23.90;99.80;;;;;;4194603;28;20015;-67
2022/10/18 01:10:23;;;;;;;;;;;24.00;99.90;;;;;;4203765;28;19970;-66
2022/10/18 01:12:34;;;;;;;;;;;24.00;99.70;;;;;;4191228;28;19975;-68
2022/10/18 01:15:14;;;;;;;;;;;24.10;99.70;;;;;;4209044;28;19986;-66
2022/10/18 01:17:23;;;;;;;;;;;24.10;99.50;;;;;;4158875;28;19936;-66
2022/10/18 01:19:45;;;;;;;;;;;24.10;99.00;;;;;;4142544;28;20024;-66
2022/10/18 01:21:56;;;;;;;;;;;24.10;98.60;;;;;;4158059;28;19925;-66
2022/10/18 01:24:05;;;;;;;;;;;24.10;98.70;;;;;;4159277;28;19936;-67
2022/10/18 01:26:28;;;;;;;;;;;24.20;98.50;;;;;;4155934;28;20409;-67
2022/10/18 01:28:44;;;;;;;;;;;24.20;98.50;;;;;;4142172;28;19925;-66
2022/10/18 01:30:54;;;;;;;;;;;24.30;98.10;;;;;;4157433;28;19972;-68
2022/10/18 01:33:07;;;;;;;;;;;24.30;97.90;;;;;;4158666;28;19940;-68
2022/10/18 01:35:13;;;;;;;;;;;24.30;97.80;;;;;;4141904;28;19932;-69
2022/10/18 01:37:17;;;;;;;;;;;24.40;97.60;;;;;;4148312;28;19979;-68
2022/10/18 01:39:24;;;;;;;;;;;24.40;97.50;;;;;;4110249;28;20620;-69
2022/10/18 01:41:30;;;;;;;;;;;24.50;97.90;;;;;;4141097;28;19995;-66
2022/10/18 01:43:37;;;;;;;;;;;24.60;97.30;;;;;;4148818;28;20028;-67
2022/10/18 01:45:46;;;;;;;;;;;24.60;97.30;;;;;;4143991;28;19959;-67
2022/10/18 01:47:51;;;;;;;;;;;24.80;97.40;;;;;;4129766;28;20439;-68
2022/10/18 01:49:58;;;;;;;;;;;24.80;96.60;;;;;;4149466;28;20346;-67
2022/10/18 01:52:03;;;;;;;;;;;24.80;97.40;;;;;;4161619;28;19925;-67
2022/10/18 01:54:10;;;;;;;;;;;24.90;97.10;;;;;;4175056;28;20358;-67
2022/10/18 01:56:27;;;;;;;;;;;25.00;96.80;;;;;;4180151;28;20278;-67
2022/10/18 01:58:35;;;;;;;;;;;25.10;97.00;;;;;;4173154;28;19951;-67
2022/10/18 02:00:43;;;;;;;;;;;25.20;94.10;;;;;;4172750;28;20679;-68
2022/10/18 02:03:02;;;;;;;;;;;25.20;94.20;;;;;;4161945;28;19961;-69
2022/10/18 02:05:07;;;;;;;;;;;25.20;93.80;;;;;;4162042;28;19925;-70
2022/10/18 02:07:23;;;;;;;;;;;25.30;94.20;;;;;;4173710;28;19929;-69
2022/10/18 02:09:38;;;;;;;;;;;25.40;92.80;;;;;;4184704;28;19929;-67
2022/10/18 02:11:43;;;;;;;;;;;25.40;92.30;;;;;;4170224;28;19929;-70
2022/10/18 02:13:59;;;;;;;;;;;25.50;92.50;;;;;;4170811;28;19932;-69
2022/10/18 02:16:28;;;;;;;;;;;25.60;92.20;;;;;;4194222;28;20019;-68
2022/10/18 02:18:36;;;;;;;;;;;25.60;91.90;;;;;;4175394;28;19983;-68
2022/10/18 02:20:42;;;;;;;;;;;25.60;91.60;;;;;;4179394;28;19933;-68
2022/10/18 02:22:48;;;;;;;;;;;25.60;92.40;;;;;;4178293;28;19960;-68
2022/10/18 02:24:53;;;;;;;;;;;25.70;91.90;;;;;;4161951;28;19929;-69
2022/10/18 02:26:59;;;;;;;;;;;25.80;91.60;;;;;;4179542;28;19932;-69
2022/10/18 02:29:07;;;;;;;;;;;25.80;91.50;;;;;;4163051;28;20384;-67
2022/10/18 02:31:26;;;;;;;;;;;25.80;91.70;;;;;;4179549;28;20020;-68
2022/10/18 02:33:51;;;;;;;;;;;25.90;91.10;;;;;;4181688;28;19986;-67
2022/10/18 02:36:03;;;;;;;;;;;26.00;91.00;;;;;;4178810;28;19933;-67
2022/10/18 02:38:08;;;;;;;;;;;25.90;89.90;;;;;;4176784;28;20415;-67
2022/10/18 02:40:13;;;;;;;;;;;26.00;90.30;;;;;;4194455;28;20345;-67
2022/10/18 02:42:20;;;;;;;;;;;26.00;90.50;;;;;;4191296;28;19954;-68
2022/10/18 02:44:24;;;;;;;;;;;26.10;90.40;;;;;;4178587;28;19928;-67
2022/10/18 02:46:31;;;;;;;;;;;26.10;90.10;;;;;;4195676;28;20391;-68
2022/10/18 02:48:41;;;;;;;;;;;26.10;90.70;;;;;;4196100;28;19928;-67
2022/10/18 02:50:48;;;;;;;;;;;26.20;90.90;;;;;;4178810;28;20006;-66
2022/10/18 02:52:59;;;;;;;;;;;26.30;90.90;;;;;;4195929;28;19928;-67
2022/10/18 02:55:08;;;;;;;;;;;26.30;91.00;;;;;;4195197;28;19962;-67
2022/10/18 02:57:13;;;;;;;;;;;26.30;90.20;;;;;;4195960;28;19932;-67
2022/10/18 02:59:19;;;;;;;;;;;26.40;90.80;;;;;;4195223;28;19932;-66
2022/10/18 03:01:23;;;;;;;;;;;26.40;90.30;;;;;;4179997;28;19929;-66
2022/10/18 03:03:48;;;;;;;;;;;26.50;90.30;;;;;;4179890;28;19983;-67
2022/10/18 03:05:55;;;;;;;;;;;26.50;90.30;;;;;;4179324;28;19960;-67
2022/10/18 03:08:05;;;;;;;;;;;26.50;90.50;;;;;;4186499;28;20322;-67
2022/10/18 03:10:10;;;;;;;;;;;26.60;90.10;;;;;;4174303;28;19972;-67
2022/10/18 03:12:27;;;;;;;;;;;26.70;89.70;;;;;;4179813;28;19924;-67
2022/10/18 03:14:34;;;;;;;;;;;26.70;89.40;;;;;;4178349;28;19947;-67
2022/10/18 03:16:37;;;;;;;;;;;26.80;90.10;;;;;;4180985;28;19944;-67
2022/10/18 03:18:44;;;;;;;;;;;26.70;87.20;;;;;;4177036;28;19976;-67
2022/10/18 03:20:50;;;;;;;;;;;26.80;87.70;;;;;;4188981;28;19929;-67
2022/10/18 03:22:54;;;;;;;;;;;26.90;88.20;;;;;;4187194;28;19951;-66
2022/10/18 03:24:59;;;;;;;;;;;27.00;87.20;;;;;;4195403;28;19932;-67
2022/10/18 03:27:06;;;;;;;;;;;27.00;87.60;;;;;;4195465;28;20383;-67
2022/10/18 03:29:12;;;;;;;;;;;26.90;87.20;;;;;;4195505;28;19928;-67
2022/10/18 03:31:18;;;;;;;;;;;27.00;87.20;;;;;;4185031;28;20432;-66
2022/10/18 03:33:22;;;;;;;;;;;27.00;87.00;;;;;;4177877;28;19935;-66
2022/10/18 03:35:28;;;;;;;;;;;27.00;87.30;;;;;;4178300;28;19928;-66
2022/10/18 03:37:35;;;;;;;;;;;27.10;88.10;;;;;;4186255;28;19929;-67
2022/10/18 03:39:50;;;;;;;;;;;27.20;87.70;;;;;;4195418;28;20335;-67
2022/10/18 03:41:55;;;;;;;;;;;27.20;86.90;;;;;;4177834;28;19964;-67
2022/10/18 03:44:06;;;;;;;;;;;27.20;86.30;;;;;;4182973;28;19929;-68
2022/10/18 03:46:14;;;;;;;;;;;27.30;88.20;;;;;;4178321;28;19928;-68
2022/10/18 03:48:18;;;;;;;;;;;27.40;86.60;;;;;;4178821;28;19925;-68
2022/10/18 03:50:30;;;;;;;;;;;27.30;85.20;;;;;;4177211;28;19929;-67
2022/10/18 03:52:38;;;;;;;;;;;27.30;86.10;;;;;;4177121;28;19928;-67
2022/10/18 03:54:42;;;;;;;;;;;27.30;86.40;;;;;;4177390;28;19928;-69
2022/10/18 03:56:50;;;;;;;;;;;27.50;83.20;;;;;;4175214;28;19929;-66
2022/10/18 03:58:58;;;;;;;;;;;27.50;85.80;;;;;;4178937;28;20026;-66
2022/10/18 04:01:15;;;;;;;;;;;27.50;86.90;;;;;;4182252;28;19929;-67
2022/10/18 04:03:26;;;;;;;;;;;27.60;84.70;;;;;;4187931;28;19924;-67
2022/10/18 04:05:35;;;;;;;;;;;27.70;84.20;;;;;;4193649;28;19935;-68
2022/10/18 04:07:44;;;;;;;;;;;27.80;85.70;;;;;;4188203;28;19934;-68
2022/10/18 04:09:50;;;;;;;;;;;27.80;82.20;;;;;;4193812;28;19939;-68
2022/10/18 04:12:06;;;;;;;;;;;27.80;82.70;;;;;;4186000;28;19970;-68
2022/10/18 04:14:12;;;;;;;;;;;27.80;83.10;;;;;;4192114;28;19929;-68
2022/10/18 04:16:18;;;;;;;;;;;27.80;81.60;;;;;;4182281;28;19955;-66
2022/10/18 04:18:22;;;;;;;;;;;27.80;83.60;;;;;;4176747;28;20370;-67
2022/10/18 04:20:26;;;;;;;;;;;27.90;83.00;;;;;;4177518;28;19931;-67
2022/10/18 04:22:30;;;;;;;;;;;27.90;81.50;;;;;;4177507;28;19960;-66
2022/10/18 04:24:34;;;;;;;;;;;27.90;81.00;;;;;;4177031;28;20390;-66
2022/10/18 04:26:39;;;;;;;;;;;27.90;82.10;;;;;;4177509;28;19924;-66
2022/10/18 04:28:43;;;;;;;;;;;27.90;82.80;;;;;;4177703;28;20449;-67
2022/10/18 04:30:51;;;;;;;;;;;28.00;83.10;;;;;;4176264;28;19928;-67
2022/10/18 04:32:55;;;;;;;;;;;28.10;81.80;;;;;;4175605;28;19928;-69
2022/10/18 04:34:59;;;;;;;;;;;28.20;81.50;;;;;;4177348;28;19933;-69
2022/10/18 04:37:07;;;;;;;;;;;28.20;81.80;;;;;;4177743;28;20547;-67
2022/10/18 04:39:18;;;;;;;;;;;28.30;83.00;;;;;;4177430;28;19975;-67
2022/10/18 04:41:26;;;;;;;;;;;28.40;81.80;;;;;;4177211;28;19925;-67
2022/10/18 04:43:32;;;;;;;;;;;28.40;81.20;;;;;;4177475;28;19939;-67
2022/10/18 04:45:40;;;;;;;;;;;28.40;80.80;;;;;;4158175;28;19929;-69
2022/10/18 04:47:59;;;;;;;;;;;28.50;81.70;;;;;;4172615;28;20019;-70
2022/10/18 04:50:07;;;;;;;;;;;28.50;80.00;;;;;;4165096;28;20361;-70
2022/10/18 04:52:11;;;;;;;;;;;28.40;79.30;;;;;;4189575;28;20031;-69
2022/10/18 04:54:17;;;;;;;;;;;28.40;79.90;;;;;;4187221;28;19937;-69
2022/10/18 04:56:27;;;;;;;;;;;28.40;80.00;;;;;;4175623;28;19925;-67
2022/10/18 04:58:48;;;;;;;;;;;28.50;80.70;;;;;;4168856;28;19929;-67
2022/10/18 05:00:57;;;;;;;;;;;28.50;80.50;;;;;;4171085;28;19974;-67
2022/10/18 05:03:05;;;;;;;;;;;28.50;79.70;;;;;;4165989;28;20465;-67
2022/10/18 05:05:10;;;;;;;;;;;28.50;81.30;;;;;;4174993;28;19929;-67
2022/10/18 05:07:17;;;;;;;;;;;28.60;80.40;;;;;;4171361;28;19929;-67
2022/10/18 05:09:24;;;;;;;;;;;28.60;79.70;;;;;;4164120;28;19925;-67
2022/10/18 05:11:29;;;;;;;;;;;28.70;80.40;;;;;;4169892;28;19929;-68
2022/10/18 05:13:37;;;;;;;;;;;28.70;80.00;;;;;;4173147;28;19933;-68
2022/10/18 05:15:45;;;;;;;;;;;28.70;79.70;;;;;;4191257;28;19933;-70
2022/10/18 05:17:49;;;;;;;;;;;28.80;79.60;;;;;;4159583;28;19973;-68
2022/10/18 05:19:57;;;;;;;;;;;28.80;79.40;;;;;;4165845;28;19929;-68
2022/10/18 05:22:05;;;;;;;;;;;28.80;79.50;;;;;;4159299;28;20441;-69
2022/10/18 05:24:12;;;;;;;;;;;28.90;79.60;;;;;;4168278;28;19929;-69
2022/10/18 05:26:17;;;;;;;;;;;29.00;80.10;;;;;;4175170;28;20002;-68
2022/10/18 05:28:23;;;;;;;;;;;29.00;78.50;;;;;;4169459;28;20004;-68
2022/10/18 05:30:43;;;;;;;;;;;29.00;77.70;;;;;;4169845;28;19933;-68
2022/10/18 05:32:47;;;;;;;;;;;29.00;77.70;;;;;;4205742;28;20039;-68
2022/10/18 05:34:53;;;;;;;;;;;29.00;78.70;;;;;;4194625;28;19936;-68
2022/10/18 05:36:58;;;;;;;;;;;29.00;78.00;;;;;;4210540;28;19966;-68
2022/10/18 05:39:04;;;;;;;;;;;29.00;77.80;;;;;;4160543;28;19993;-67
2022/10/18 05:41:10;;;;;;;;;;;29.00;78.20;;;;;;4195380;28;19985;-69
2022/10/18 05:43:18;;;;;;;;;;;29.10;78.70;;;;;;4195034;28;19987;-67
2022/10/18 05:45:26;;;;;;;;;;;29.10;79.10;;;;;;4195131;28;19932;-67
2022/10/18 05:47:33;;;;;;;;;;;29.10;78.60;;;;;;4209442;28;19952;-68
2022/10/18 05:49:42;;;;;;;;;;;29.10;77.90;;;;;;4209515;28;19960;-68
2022/10/18 05:51:53;;;;;;;;;;;29.10;77.70;;;;;;4181346;28;20030;-67
2022/10/18 05:53:58;;;;;;;;;;;29.20;78.30;;;;;;4194015;28;19928;-68
2022/10/18 05:56:02;;;;;;;;;;;29.20;78.30;;;;;;4193207;28;20613;-67
2022/10/18 05:58:07;;;;;;;;;;;29.20;77.30;;;;;;4193538;28;20028;-67
2022/10/18 06:00:19;;;;;;;;;;;29.20;76.80;;;;;;4193202;28;19936;-68
2022/10/18 06:02:35;;;;;;;;;;;29.20;77.80;;;;;;4193523;28;19928;-68
2022/10/18 06:04:47;;;;;;;;;;;29.20;77.30;;;;;;4193713;28;20043;-68
2022/10/18 06:06:54;;;;;;;;;;;29.20;77.90;;;;;;4194240;28;19978;-68
2022/10/18 06:09:02;;;;;;;;;;;29.30;77.50;;;;;;4194855;28;20418;-68
2022/10/18 06:11:07;;;;;;;;;;;29.30;77.40;;;;;;4192986;28;19981;-68
2022/10/18 06:13:32;;;;;;;;;;;29.40;75.90;;;;;;4186168;28;19928;-68
2022/10/18 06:15:41;;;;;;;;;;;29.40;77.90;;;;;;4195385;28;19928;-69
2022/10/18 06:17:47;;;;;;;;;;;29.40;76.40;;;;;;4192836;28;19924;-69
2022/10/18 06:19:51;;;;;;;;;;;29.40;76.90;;;;;;4193778;28;19936;-69
2022/10/18 06:21:55;;;;;;;;;;;29.40;76.40;;;;;;4193894;28;20317;-68
2022/10/18 06:24:02;;;;;;;;;;;29.40;76.90;;;;;;4195851;28;19940;-70
2022/10/18 06:26:11;;;;;;;;;;;29.40;76.80;;;;;;4206864;28;19934;-71
2022/10/18 06:28:15;;;;;;;;;;;29.50;77.60;;;;;;4173584;28;19932;-70
2022/10/18 06:30:25;;;;;;;;;;;29.50;77.70;;;;;;4207587;28;19924;-70
2022/10/18 06:32:30;;;;;;;;;;;29.60;78.40;;;;;;4162760;28;19932;-69
2022/10/18 06:34:35;;;;;;;;;;;29.60;77.90;;;;;;4192059;28;19928;-70
2022/10/18 06:36:40;;;;;;;;;;;29.60;77.70;;;;;;4194493;28;19986;-68
2022/10/18 06:38:44;;;;;;;;;;;29.60;77.40;;;;;;4194704;28;20747;-72
2022/10/18 06:40:50;;;;;;;;;;;29.60;77.30;;;;;;4189789;28;19963;-70
2022/10/18 06:42:59;;;;;;;;;;;29.70;77.10;;;;;;4188885;28;20518;-68
2022/10/18 06:45:24;;;;;;;;;;;29.60;76.70;;;;;;4195335;28;20014;-69
2022/10/18 06:47:47;;;;;;;;;;;29.70;77.20;;;;;;4196060;28;19936;-68
2022/10/18 06:49:52;;;;;;;;;;;29.70;78.50;;;;;;4178638;28;19952;-69
2022/10/18 06:51:59;;;;;;;;;;;29.80;77.40;;;;;;4195749;28;20310;-69
2022/10/18 06:54:04;;;;;;;;;;;29.80;76.80;;;;;;4194701;28;20090;-69
2022/10/18 06:56:22;;;;;;;;;;;29.80;76.90;;;;;;4212968;28;19932;-68
2022/10/18 06:58:29;;;;;;;;;;;29.80;77.40;;;;;;4195775;28;19983;-69
2022/10/18 07:00:38;;;;;;;;;;;29.80;77.70;;;;;;4174761;28;19940;-68
2022/10/18 07:02:44;;;;;;;;;;;29.80;76.60;;;;;;4183929;28;19929;-68
2022/10/18 07:04:50;;;;;;;;;;;29.80;76.10;;;;;;4193811;28;19994;-69
2022/10/18 07:06:57;;;;;;;;;;;29.80;76.00;;;;;;4190708;28;19982;-69
2022/10/18 07:09:03;;;;;;;;;;;29.90;75.70;;;;;;4195797;28;20418;-69
2022/10/18 07:11:16;;;;;;;;;;;29.90;76.20;;;;;;4194567;28;19960;-68
2022/10/18 07:13:21;;;;;;;;;;;29.90;76.00;;;;;;4194738;28;19963;-70
2022/10/18 07:15:42;;;;;;;;;;;29.90;75.70;;;;;;4195167;28;20314;-69
2022/10/18 07:17:50;;;;;;;;;;;29.90;75.70;;;;;;4194842;28;19928;-69
2022/10/18 07:19:55;;;;;;;;;;;29.90;75.90;;;;;;4209986;28;19924;-68
2022/10/18 07:22:01;;;;;;;;;;;29.90;75.30;;;;;;4195343;28;20361;-69
2022/10/18 07:24:09;;;;;;;;;;;30.00;75.20;;;;;;4209570;28;20604;-69
2022/10/18 07:26:22;;;;;;;;;;;30.00;76.30;;;;;;4194296;28;19932;-69
2022/10/18 07:28:31;;;;;;;;;;;30.00;75.50;;;;;;4192722;28;19928;-68
2022/10/18 07:30:37;;;;;;;;;;;30.00;75.50;;;;;;4144399;28;19929;-68
2022/10/18 07:32:42;;;;;;;;;;;30.00;73.30;;;;;;4194847;28;19932;-68
2022/10/18 07:34:53;;;;;;;;;;;30.00;73.60;;;;;;4193584;28;19932;-68
2022/10/18 07:37:06;;;;;;;;;;;30.00;74.90;;;;;;4198042;28;20036;-69
2022/10/18 07:39:25;;;;;;;;;;;30.00;74.80;;;;;;4185182;28;20371;-68
2022/10/18 07:41:35;;;;;;;;;;;30.10;74.90;;;;;;4193995;28;19963;-69
2022/10/18 07:43:41;;;;;;;;;;;30.10;75.40;;;;;;4177630;28;19924;-69
2022/10/18 07:45:50;;;;;;;;;;;30.10;75.20;;;;;;4209781;28;19928;-69
2022/10/18 07:47:55;;;;;;;;;;;30.10;75.50;;;;;;4179929;28;19928;-69
2022/10/18 07:50:00;;;;;;;;;;;30.10;75.90;;;;;;4193051;28;20333;-69
2022/10/18 07:52:08;;;;;;;;;;;30.20;76.70;;;;;;4193212;28;20374;-70
2022/10/18 07:54:16;;;;;;;;;;;30.20;76.50;;;;;;4193544;28;20036;-70
2022/10/18 07:56:27;;;;;;;;;;;30.20;76.90;;;;;;4193786;28;19928;-70
2022/10/18 07:58:32;;;;;;;;;;;30.20;76.50;;;;;;4193440;28;20394;-69
2022/10/18 08:00:36;;;;;;;;;;;30.20;76.10;;;;;;4189860;28;19928;-69
2022/10/18 08:02:56;;;;;;;;;;;30.20;75.10;;;;;;4192931;28;19972;-69
2022/10/18 08:05:06;;;;;;;;;;;30.20;76.10;;;;;;4208426;28;19939;-69
2022/10/18 08:07:19;;;;;;;;;;;30.20;76.30;;;;;;4194389;28;20015;-71
2022/10/18 08:09:32;;;;;;;;;;;30.20;76.50;;;;;;4193418;28;19928;-69
2022/10/18 08:11:36;;;;;;;;;;;30.30;76.90;;;;;;4192196;28;19998;-70
2022/10/18 08:13:43;;;;;;;;;;;30.30;76.80;;;;;;4193509;28;19932;-69
2022/10/18 08:15:47;;;;;;;;;;;30.30;75.10;;;;;;4193264;28;19935;-69
2022/10/18 08:17:51;;;;;;;;;;;30.30;75.80;;;;;;4193387;28;19932;-70
2022/10/18 08:19:55;;;;;;;;;;;30.30;76.00;;;;;;4207327;28;19928;-70
2022/10/18 08:22:14;;;;;;;;;;;30.30;75.90;;;;;;4192580;28;19928;-69
2022/10/18 08:24:19;;;;;;;;;;;30.20;75.20;;;;;;4194073;28;19928;-69
2022/10/18 08:26:27;;;;;;;;;;;30.20;75.60;;;;;;4193886;28;19928;-68
2022/10/18 08:28:40;;;;;;;;;;;30.20;76.50;;;;;;4192387;28;19928;-69
2022/10/18 08:31:03;;;;;;;;;;;30.20;76.50;;;;;;4174672;28;20019;-69
2022/10/18 08:33:19;;;;;;;;;;;30.30;76.10;;;;;;4176719;28;19994;-68
2022/10/18 08:35:24;;;;;;;;;;;30.30;76.00;;;;;;4175490;28;19933;-69
2022/10/18 08:37:29;;;;;;;;;;;30.20;75.70;;;;;;4197446;28;20370;-69
2022/10/18 08:39:38;;;;;;;;;;;30.20;76.00;;;;;;4190784;28;19929;-68
2022/10/18 08:41:51;;;;;;;;;;;30.30;76.00;;;;;;4210146;28;19934;-70
2022/10/18 08:43:57;;;;;;;;;;;30.30;76.20;;;;;;4160152;28;19968;-71
2022/10/18 08:46:09;;;;;;;;;;;30.30;76.10;;;;;;4189854;28;19929;-71
2022/10/18 08:48:20;;;;;;;;;;;30.30;76.30;;;;;;4176991;28;19925;-70
2022/10/18 08:50:34;;;;;;;;;;;30.30;76.60;;;;;;4176553;28;19959;-70
2022/10/18 08:52:53;;;;;;;;;;;30.30;77.30;;;;;;4177006;28;19925;-70
2022/10/18 08:55:04;;;;;;;;;;;30.30;76.90;;;;;;4176373;28;19925;-69
2022/10/18 08:57:13;;;;;;;;;;;30.30;76.60;;;;;;4208398;28;20338;-69
2022/10/18 08:59:20;;;;;;;;;;;30.30;76.80;;;;;;4209078;28;19928;-70
2022/10/18 09:01:27;;;;;;;;;;;30.30;76.60;;;;;;4179668;28;19935;-70
2022/10/18 09:03:43;;;;;;;;;;;30.30;77.60;;;;;;4197762;28;20260;-70
2022/10/18 09:06:06;;;;;;;;;;;30.30;76.80;;;;;;4196831;28;19924;-70
2022/10/18 09:08:17;;;;;;;;;;;30.20;76.30;;;;;;4202448;28;19975;-71
2022/10/18 09:10:32;;;;;;;;;;;30.20;76.30;;;;;;4179604;28;20008;-70
2022/10/18 09:12:47;;;;;;;;;;;30.20;76.80;;;;;;4214515;28;19977;-70
2022/10/18 09:15:05;;;;;;;;;;;30.20;77.10;;;;;;4229170;28;19950;-69
2022/10/18 09:17:30;;;;;;;;;;;30.20;77.60;;;;;;4229647;28;20433;-70
2022/10/18 09:19:40;;;;;;;;;;;30.20;78.10;;;;;;4208491;28;19928;-69
2022/10/18 09:21:51;;;;;;;;;;;30.20;78.00;;;;;;4196460;28;19956;-69
2022/10/18 09:24:02;;;;;;;;;;;30.10;78.60;;;;;;4197625;28;20259;-70
2022/10/18 09:26:13;;;;;;;;;;;30.00;79.20;;;;;;4179655;28;20404;-70
2022/10/18 09:28:32;;;;;;;;;;;30.00;78.80;;;;;;4179879;28;19948;-70
2022/10/18 09:30:39;;;;;;;;;;;30.00;78.60;;;;;;4183849;28;19974;-70
2022/10/18 09:33:02;;;;;;;;;;;30.10;79.30;;;;;;4212069;28;20661;-70
2022/10/18 09:35:21;;;;;;;;;;;30.00;79.00;;;;;;4211455;28;19928;-71
2022/10/18 09:37:26;;;;;;;;;;;30.00;79.30;;;;;;4215814;28;19939;-70
2022/10/18 09:39:32;;;;;;;;;;;30.00;79.50;;;;;;4190675;28;19929;-70
2022/10/18 09:41:52;;;;;;;;;;;30.00;79.80;;;;;;4195038;28;19979;-70
2022/10/18 09:44:08;;;;;;;;;;;30.00;80.20;;;;;;4197083;28;20424;-70
2022/10/18 09:46:16;;;;;;;;;;;29.90;80.30;;;;;;4210449;28;19932;-70
2022/10/18 09:48:38;;;;;;;;;;;29.90;80.40;;;;;;4210832;28;20580;-71
2022/10/18 09:50:56;;;;;;;;;;;29.90;80.90;;;;;;4209869;28;20026;-72
2022/10/18 09:53:14;;;;;;;;;;;29.80;81.10;;;;;;4196787;28;19929;-70
2022/10/18 09:55:29;;;;;;;;;;;29.80;81.00;;;;;;4196316;28;19940;-70
2022/10/18 09:57:49;;;;;;;;;;;29.80;80.60;;;;;;4197023;28;19929;-71
2022/10/18 10:00:13;;;;;;;;;;;29.80;80.90;;;;;;4209174;28;19956;-71
2022/10/18 10:02:23;;;;;;;;;;;29.70;80.60;;;;;;4210763;28;19934;-71
2022/10/18 10:04:29;;;;;;;;;;;29.70;81.00;;;;;;4196365;28;19928;-71
2022/10/18 10:06:34;;;;;;;;;;;29.60;81.10;;;;;;4195847;28;19978;-70
2022/10/18 10:08:50;;;;;;;;;;;29.60;81.40;;;;;;4192234;28;19937;-70
2022/10/18 10:10:55;;;;;;;;;;;29.60;81.90;;;;;;4195327;28;20490;-68
2022/10/18 10:13:24;;;;;;;;;;;29.50;82.40;;;;;;4209479;28;19924;-69
2022/10/18 10:15:32;;;;;;;;;;;29.50;82.90;;;;;;4210720;28;19934;-69
2022/10/18 10:17:42;;;;;;;;;;;29.50;83.20;;;;;;4196397;28;20393;-70
2022/10/18 10:19:56;;;;;;;;;;;29.40;83.30;;;;;;4192389;28;19928;-69
2022/10/18 10:22:07;;;;;;;;;;;29.40;83.70;;;;;;4176619;28;20044;-69
2022/10/18 10:24:18;;;;;;;;;;;29.30;84.10;;;;;;4195199;28;19929;-67
2022/10/18 10:26:32;;;;;;;;;;;29.30;84.00;;;;;;4210198;28;19924;-69
2022/10/18 10:28:47;;;;;;;;;;;29.20;83.80;;;;;;4178673;28;19976;-70
2022/10/18 10:30:51;;;;;;;;;;;29.20;83.50;;;;;;4194913;28;19956;-69
2022/10/18 10:32:56;;;;;;;;;;;29.20;83.60;;;;;;4195854;28;19948;-69
2022/10/18 10:35:02;;;;;;;;;;;29.20;83.80;;;;;;4178061;28;19936;-68
2022/10/18 10:37:27;;;;;;;;;;;29.10;83.70;;;;;;4177769;28;19975;-68
2022/10/18 10:39:42;;;;;;;;;;;29.10;83.80;;;;;;4190122;28;19932;-69
2022/10/18 10:42:06;;;;;;;;;;;29.10;83.80;;;;;;4193918;28;20291;-69
2022/10/18 10:44:48;;;;;;;;;;;29.10;83.90;;;;;;4166678;28;19939;-69
2022/10/18 10:46:56;;;;;;;;;;;28.90;83.40;;;;;;4158009;28;19929;-69
2022/10/18 10:49:18;;;;;;;;;;;28.80;83.60;;;;;;4184937;28;19924;-69
2022/10/18 10:51:43;;;;;;;;;;;28.90;84.10;;;;;;4174552;28;19934;-69
2022/10/18 10:54:19;;;;;;;;;;;28.90;84.30;;;;;;4192344;28;19929;-68
2022/10/18 10:56:25;;;;;;;;;;;28.80;84.30;;;;;;4191359;28;20011;-68
2022/10/18 10:58:33;;;;;;;;;;;28.80;84.50;;;;;;4178675;28;19967;-68
2022/10/18 11:00:40;;;;;;;;;;;28.80;84.80;;;;;;4175882;28;20351;-69
2022/10/18 11:02:45;;;;;;;;;;;28.70;84.90;;;;;;4177896;28;19929;-69
2022/10/18 11:05:22;;;;;;;;;;;28.70;85.40;;;;;;4195846;28;20278;-69
2022/10/18 11:07:31;;;;;;;;;;;28.60;85.90;;;;;;4199436;28;20019;-69
2022/10/18 11:09:37;;;;;;;;;;;28.50;86.50;;;;;;4196132;28;19933;-69
2022/10/18 11:11:45;;;;;;;;;;;28.60;87.00;;;;;;4194900;28;19928;-70
2022/10/18 11:13:52;;;;;;;;;;;28.50;87.30;;;;;;4210431;28;19923;-70
2022/10/18 11:16:25;;;;;;;;;;;28.50;87.70;;;;;;4206927;28;20417;-70
2022/10/18 11:18:31;;;;;;;;;;;28.50;87.80;;;;;;4187865;28;19982;-68
2022/10/18 11:20:37;;;;;;;;;;;28.50;88.00;;;;;;4191111;28;19928;-69
2022/10/18 11:22:43;;;;;;;;;;;28.40;88.20;;;;;;4209694;28;19932;-70
2022/10/18 11:24:47;;;;;;;;;;;28.40;88.50;;;;;;4194252;28;19928;-69
2022/10/18 11:26:53;;;;;;;;;;;28.30;88.50;;;;;;4195205;28;19931;-69
2022/10/18 11:29:16;;;;;;;;;;;28.30;88.80;;;;;;4190549;28;19942;-69
2022/10/18 11:31:37;;;;;;;;;;;28.30;89.00;;;;;;4175493;28;19978;-68
2022/10/18 11:33:43;;;;;;;;;;;28.20;89.20;;;;;;4190944;28;20550;-68
2022/10/18 11:36:11;;;;;;;;;;;28.20;89.30;;;;;;4195464;28;19932;-68
2022/10/18 11:38:43;;;;;;;;;;;28.20;89.00;;;;;;4144672;28;20004;-68
2022/10/18 11:40:56;;;;;;;;;;;28.20;89.30;;;;;;4159477;28;20295;-69
2022/10/18 11:43:15;;;;;;;;;;;28.20;89.40;;;;;;4154451;28;19937;-69
2022/10/18 11:45:37;;;;;;;;;;;28.10;89.60;;;;;;4142857;28;19929;-69
2022/10/18 11:48:09;;;;;;;;;;;28.10;89.80;;;;;;4156103;28;19933;-69
2022/10/18 11:50:25;;;;;;;;;;;28.00;90.00;;;;;;4142712;28;19936;-69
2022/10/18 11:52:45;;;;;;;;;;;28.00;90.10;;;;;;4159501;28;19925;-68
2022/10/18 11:55:18;;;;;;;;;;;28.00;90.20;;;;;;4145779;28;20067;-70
2022/10/18 11:57:29;;;;;;;;;;;27.90;90.40;;;;;;4183887;28;19928;-70
2022/10/18 11:59:33;;;;;;;;;;;27.90;90.50;;;;;;4194601;28;19924;-68
2022/10/18 12:01:50;;;;;;;;;;;27.90;90.60;;;;;;4194683;28;19928;-69
2022/10/18 12:03:57;;;;;;;;;;;27.90;90.70;;;;;;4193854;28;19928;-69
2022/10/18 12:06:06;;;;;;;;;;;27.80;90.80;;;;;;4194182;28;19978;-69
2022/10/18 12:08:12;;;;;;;;;;;27.80;91.50;;;;;;4187122;28;19997;-69
2022/10/18 12:10:17;;;;;;;;;;;27.70;91.60;;;;;;4193327;28;20358;-70
2022/10/18 12:12:47;;;;;;;;;;;27.70;91.50;;;;;;4195002;28;20138;-69
2022/10/18 12:14:53;;;;;;;;;;;27.70;91.70;;;;;;4177134;28;20248;-69
2022/10/18 12:17:04;;;;;;;;;;;27.70;91.90;;;;;;4193816;28;19943;-69
2022/10/18 12:19:33;;;;;;;;;;;27.70;92.10;;;;;;4206345;28;19972;-69
2022/10/18 12:21:48;;;;;;;;;;;27.60;92.10;;;;;;4194803;28;19974;-69
2022/10/18 12:24:02;;;;;;;;;;;27.60;92.40;;;;;;4193007;28;19928;-69
2022/10/18 12:26:11;;;;;;;;;;;27.60;92.60;;;;;;4160876;28;19980;-69
2022/10/18 12:28:23;;;;;;;;;;;27.60;92.70;;;;;;4174700;28;20000;-70
2022/10/18 12:30:47;;;;;;;;;;;27.60;92.80;;;;;;4192902;28;20652;-69
2022/10/18 12:32:57;;;;;;;;;;;27.50;92.90;;;;;;4193622;28;20365;-69
2022/10/18 12:36:03;;;;;;;;;;;27.50;93.20;;;;;;4157688;28;19971;-68
2022/10/18 12:38:23;;;;;;;;;;;27.50;93.30;;;;;;4147684;28;19929;-68